Time;durP1;ratioP1;P1;durP2;ratioP2;P2;SDS_P1;SDS_P2;PMS_P1;PMS_P2;Temp;Humidity;BMP_temperature;BMP_pressure;BME280_temperature;BME280_humidity;BME280_pressure;Samples;Min_cycle;Max_cycle;Signal;HPM_P1;HPM_P2
2021/12/25 00:00:00;;;;;;;5.78;3.50;;;;;;;14.28;38.70;100538.81;5091862;28;20413;-64
2021/12/25 00:02:28;;;;;;;7.13;3.90;;;;;;;14.28;38.52;100530.81;5091509;28;20456;-63
2021/12/25 00:04:54;;;;;;;5.17;3.20;;;;;;;14.37;38.55;100535.19;5091427;28;20786;-64
2021/12/25 00:07:21;;;;;;;5.37;3.50;;;;;;;14.43;38.35;100534.56;5091431;28;20524;-64
2021/12/25 00:09:48;;;;;;;4.60;3.27;;;;;;;14.39;38.28;100520.72;5091696;28;20496;-64
2021/12/25 00:12:17;;;;;;;5.23;3.57;;;;;;;14.36;38.81;100528.19;5091287;28;20500;-64
2021/12/25 00:14:44;;;;;;;5.78;3.42;;;;;;;14.36;38.97;100533.53;5091486;28;20456;-64
2021/12/25 00:17:11;;;;;;;4.05;2.83;;;;;;;14.42;38.76;100538.25;5091487;28;20409;-63
2021/12/25 00:19:38;;;;;;;4.80;3.25;;;;;;;14.44;38.98;100533.59;5091391;28;20441;-64
2021/12/25 00:22:05;;;;;;;3.70;2.70;;;;;;;14.31;38.99;100533.97;5091124;28;20492;-63
2021/12/25 00:24:32;;;;;;;5.15;3.42;;;;;;;14.41;38.62;100549.88;5091051;28;20501;-64
2021/12/25 00:27:05;;;;;;;4.93;2.95;;;;;;;14.55;38.30;100549.31;5091630;28;20413;-64
2021/12/25 00:29:55;;;;;;;4.50;2.60;;;;;;;14.47;38.56;100551.91;5091429;28;20413;-63
2021/12/25 00:32:46;;;;;;;2.67;2.15;;;;;;;14.49;38.40;100565.91;5091089;28;20474;-62
2021/12/25 00:35:14;;;;;;;2.88;2.13;;;;;;;14.57;38.19;100560.69;5090726;28;20432;-62
2021/12/25 00:37:41;;;;;;;2.50;2.13;;;;;;;14.56;38.10;100556.34;5091108;28;20492;-62
2021/12/25 00:40:09;;;;;;;2.88;2.10;;;;;;;14.70;37.94;100564.75;5090699;28;20409;-62
2021/12/25 00:42:36;;;;;;;3.38;2.65;;;;;;;14.59;38.14;100560.53;5091247;28;20496;-62
2021/12/25 00:45:05;;;;;;;3.40;2.13;;;;;;;14.62;38.06;100571.72;5090442;28;20431;-62
2021/12/25 00:47:32;;;;;;;3.40;2.22;;;;;;;14.83;37.63;100567.84;5090721;28;20779;-63
2021/12/25 00:49:59;;;;;;;3.42;2.40;;;;;;;14.91;37.47;100575.88;5090339;28;20994;-62
2021/12/25 00:52:25;;;;;;;2.50;2.00;;;;;;;14.78;37.54;100575.47;5090846;28;20412;-62
2021/12/25 00:54:52;;;;;;;2.88;1.83;;;;;;;14.81;37.55;100581.31;5090406;28;20499;-62
2021/12/25 00:57:19;;;;;;;2.40;2.10;;;;;;;14.82;37.73;100580.34;5090405;28;20492;-62
2021/12/25 00:59:48;;;;;;;2.88;2.25;;;;;;;14.95;37.25;100579.91;5089938;28;20497;-62
2021/12/25 01:02:17;;;;;;;2.83;2.10;;;;;;;15.08;37.11;100586.63;5090234;28;20417;-61
2021/12/25 01:04:44;;;;;;;3.85;2.80;;;;;;;14.94;37.26;100591.59;5090229;28;20405;-61
2021/12/25 01:07:11;;;;;;;5.68;3.03;;;;;;;14.92;37.36;100590.91;5090243;28;20791;-62
2021/12/25 01:09:38;;;;;;;4.13;3.00;;;;;;;14.94;37.35;100586.25;5090284;28;20409;-62
2021/12/25 01:12:05;;;;;;;5.75;3.50;;;;;;;15.00;37.13;100585.59;5090122;28;20409;-62
2021/12/25 01:14:37;;;;;;;5.22;4.03;;;;;;;15.06;36.86;100577.94;5089960;28;20516;-62
2021/12/25 01:25:59;;;;;;;4.22;3.40;;;;;;;14.82;37.49;100587.47;5089808;28;20401;-62
2021/12/25 01:29:11;;;;;;;5.05;3.30;;;;;;;14.78;37.82;100580.78;5089819;28;20470;-62
2021/12/25 01:31:44;;;;;;;4.35;2.90;;;;;;;14.83;37.68;100578.50;5089783;28;20791;-62
2021/12/25 01:34:53;;;;;;;4.30;3.10;;;;;;;14.96;37.69;100581.59;5090038;28;20429;-62
2021/12/25 01:37:34;;;;;;;4.82;3.13;;;;;;;14.88;37.62;100581.53;5089915;28;20470;-62
2021/12/25 01:40:18;;;;;;;4.90;3.30;;;;;;;14.92;37.76;100572.22;5089585;28;20894;-62
2021/12/25 01:48:16;;;;;;;3.15;2.65;;;;;;;14.88;37.52;100568.22;5089573;28;20408;-62
2021/12/25 01:50:43;;;;;;;3.30;2.47;;;;;;;14.73;38.15;100565.28;5089568;28;20405;-62
2021/12/25 01:53:11;;;;;;;2.53;2.00;;;;;;;14.79;37.78;100563.81;5089424;28;20445;-62
2021/12/25 01:55:38;;;;;;;3.10;2.20;;;;;;;14.88;37.57;100564.69;5089325;28;20512;-62
2021/12/25 01:58:06;;;;;;;2.83;2.30;;;;;;;14.76;37.82;100567.63;5089827;28;20419;-62
2021/12/25 02:00:36;;;;;;;2.38;2.05;;;;;;;14.75;38.27;100571.28;5089378;28;20409;-62
2021/12/25 02:03:06;;;;;;;3.28;2.15;;;;;;;14.80;38.02;100577.00;5089038;28;20413;-62
2021/12/25 02:05:33;;;;;;;3.70;2.40;;;;;;;14.86;38.33;100575.50;5089626;28;20504;-62
2021/12/25 02:08:00;;;;;;;3.13;2.28;;;;;;;14.81;38.43;100581.31;5089596;28;20485;-62
2021/12/25 02:10:29;;;;;;;2.60;2.08;;;;;;;14.83;38.50;100586.50;5089239;28;20821;-62
2021/12/25 02:12:56;;;;;;;3.33;2.28;;;;;;;14.81;38.64;100581.31;5089522;28;20458;-62
2021/12/25 02:15:25;;;;;;;3.70;2.40;;;;;;;14.69;38.73;100584.41;5089523;28;20512;-62
2021/12/25 02:18:08;;;;;;;3.33;2.10;;;;;;;14.73;38.38;100577.78;5089756;28;20470;-62
2021/12/25 02:20:44;;;;;;;3.80;2.20;;;;;;;14.75;38.13;100581.13;5089147;28;20409;-62
2021/12/25 02:23:15;;;;;;;3.45;2.05;;;;;;;14.70;38.41;100586.06;5089117;28;20496;-62
2021/12/25 02:25:42;;;;;;;2.63;1.90;;;;;;;14.72;38.58;100589.41;5089093;28;20428;-62
2021/12/25 02:28:10;;;;;;;3.50;2.20;;;;;;;14.59;38.62;100566.69;5089102;28;20930;-62
2021/12/25 02:30:37;;;;;;;3.92;2.67;;;;;;;14.63;38.37;100568.03;5089390;28;20496;-62
2021/12/25 02:33:04;;;;;;;5.30;3.10;;;;;;;14.67;38.19;100573.06;5089433;28;20484;-62
2021/12/25 02:35:31;;;;;;;3.07;2.47;;;;;;;14.85;37.89;100587.19;5089244;28;20948;-62
2021/12/25 02:38:00;;;;;;;4.13;2.20;;;;;;;14.72;37.78;100586.75;5089454;28;20443;-62
2021/12/25 02:40:27;;;;;;;4.82;2.80;;;;;;;14.86;37.95;100588.84;5089176;28;20910;-62
2021/12/25 02:42:54;;;;;;;4.43;2.83;;;;;;;14.85;37.85;100584.50;5089505;28;20854;-62
2021/12/25 02:45:23;;;;;;;3.97;2.60;;;;;;;14.89;37.72;100587.72;5089166;28;20487;-63
2021/12/25 02:47:53;;;;;;;3.70;2.33;;;;;;;14.79;37.88;100583.31;5089602;28;20444;-63
2021/12/25 02:50:25;;;;;;;3.05;2.20;;;;;;;14.68;38.07;100580.06;5089107;28;20438;-63
2021/12/25 02:52:52;;;;;;;3.50;2.20;;;;;;;14.60;38.13;100572.88;5089425;28;20412;-62
2021/12/25 02:55:21;;;;;;;4.22;2.30;;;;;;;14.67;38.04;100584.56;5088852;28;20930;-62
2021/12/25 02:57:51;;;;;;;3.78;2.10;;;;;;;14.62;37.90;100581.56;5088981;28;20400;-62
2021/12/25 03:00:19;;;;;;;3.30;2.10;;;;;;;14.76;38.04;100586.31;5088933;28;20906;-62
2021/12/25 03:02:46;;;;;;;4.43;2.10;;;;;;;14.83;37.63;100591.84;5089326;28;20484;-62
2021/12/25 03:05:14;;;;;;;4.35;2.75;;;;;;;14.80;37.75;100594.81;5088899;28;20496;-62
2021/12/25 03:07:41;;;;;;;15.07;13.45;;;;;;;14.86;37.66;100577.34;5088936;28;20798;-62
2021/12/25 03:10:10;;;;;;;2.95;2.38;;;;;;;14.80;37.45;100589.47;5088836;28;20405;-63
2021/12/25 03:12:48;;;;;;;3.30;2.03;;;;;;;14.85;37.71;100594.34;5088841;28;20413;-62
2021/12/25 03:15:25;;;;;;;3.53;2.65;;;;;;;14.84;37.61;100590.81;5092412;28;20429;-62
2021/12/25 03:17:52;;;;;;;3.37;2.63;;;;;;;14.91;37.51;100594.56;5092448;28;20834;-62
2021/12/25 03:20:20;;;;;;;3.38;2.22;;;;;;;14.83;37.45;100590.00;5092482;28;20409;-62
2021/12/25 03:22:47;;;;;;;3.55;2.70;;;;;;;14.82;37.49;100600.81;5092476;28;20993;-62
2021/12/25 03:25:16;;;;;;;2.83;1.80;;;;;;;14.86;37.58;100604.84;5092388;28;20409;-62
2021/12/25 03:27:46;;;;;;;2.47;2.28;;;;;;;15.05;37.00;100597.63;5092349;28;20492;-62
2021/12/25 03:30:16;;;;;;;2.97;2.13;;;;;;;15.02;37.22;100590.75;5092640;28;20484;-62
2021/12/25 03:32:43;;;;;;;2.72;2.22;;;;;;;15.01;37.15;100591.78;5092509;28;20411;-62
2021/12/25 03:35:10;;;;;;;3.33;2.65;;;;;;;14.96;37.34;100597.59;5092403;28;20432;-62
2021/12/25 03:37:37;;;;;;;3.97;2.60;;;;;;;14.82;37.65;100588.34;5092441;28;20409;-62
2021/12/25 03:40:05;;;;;;;3.80;2.80;;;;;;;14.58;38.14;100593.53;5092115;28;20789;-62
2021/12/25 03:42:32;;;;;;;5.88;3.05;;;;;;;14.34;38.46;100600.31;5092078;28;20417;-62
2021/12/25 03:45:00;;;;;;;4.32;2.60;;;;;;;14.27;38.70;100598.41;5091994;28;20421;-62
2021/12/25 03:47:32;;;;;;;3.20;2.27;;;;;;;14.29;38.75;100604.41;5091780;28;20868;-62
2021/12/25 03:58:15;;;;;;;3.08;1.80;;;;;;;14.54;38.21;100606.28;5091845;28;20433;-62
2021/12/25 04:00:46;;;;;;;4.40;1.70;;;;;;;14.61;38.00;100604.69;5091698;28;20404;-62
2021/12/25 04:03:21;;;;;;;2.90;2.10;;;;;;;14.81;37.56;100608.00;5091923;28;20420;-62
2021/12/25 04:05:49;;;;;;;3.50;2.70;;;;;;;14.54;38.23;100605.47;5092000;28;20419;-62
2021/12/25 04:08:20;;;;;;;3.30;2.57;;;;;;;14.58;38.20;100612.19;5091549;28;20974;-62
2021/12/25 04:10:50;;;;;;;2.97;2.10;;;;;;;14.38;38.73;100616.81;5091871;28;20421;-63
2021/12/25 04:13:18;;;;;;;3.20;2.50;;;;;;;14.47;38.47;100615.06;5091395;28;20918;-62
2021/12/25 04:15:47;;;;;;;2.95;2.38;;;;;;;14.73;37.88;100615.94;5091295;28;20425;-62
2021/12/25 04:18:14;;;;;;;4.65;2.58;;;;;;;14.56;38.29;100615.00;5091368;28;20488;-62
2021/12/25 04:20:42;;;;;;;2.88;2.58;;;;;;;14.76;37.70;100615.63;5091151;28;20818;-63
2021/12/25 04:23:12;;;;;;;7.40;6.72;;;;;;;14.96;37.49;100615.41;5091629;28;20420;-62
2021/12/25 04:25:39;;;;;;;3.03;2.50;;;;;;;14.99;37.39;100618.59;5090941;28;20421;-62
2021/12/25 04:28:15;;;;;;;3.13;2.40;;;;;;;15.12;37.13;100618.16;5091415;28;20508;-62
2021/12/25 04:31:02;;;;;;;4.30;2.70;;;;;;;15.15;36.95;100612.53;5091355;28;20504;-62
2021/12/25 05:03:54;;;;;;;6.50;5.70;;;;;;;14.58;38.46;100607.69;5090609;28;20446;-61
2021/12/25 05:06:23;;;;;;;9.88;8.90;;;;;;;14.76;38.14;100610.31;5090932;28;20414;-62
2021/12/25 05:08:51;;;;;;;7.22;5.72;;;;;;;14.61;38.42;100599.34;5090417;28;20527;-62
2021/12/25 05:11:18;;;;;;;12.10;10.90;;;;;;;14.64;38.44;100598.22;5090344;28;20413;-62
2021/12/25 05:13:49;;;;;;;8.02;6.60;;;;;;;14.68;38.56;100596.91;5090202;28;20494;-61
2021/12/25 05:16:17;;;;;;;8.80;7.13;;;;;;;14.66;38.52;100604.25;5090439;28;20428;-62
2021/12/25 05:18:44;;;;;;;10.10;8.52;;;;;;;14.82;38.25;100595.47;5090153;28;20432;-61
2021/12/25 05:21:12;;;;;;;11.55;7.75;;;;;;;14.57;38.64;100595.31;5090146;28;20443;-62
2021/12/25 05:23:41;;;;;;;9.07;6.43;;;;;;;14.55;38.67;100599.13;5090386;28;20417;-62
2021/12/25 05:26:09;;;;;;;9.00;6.37;;;;;;;14.52;39.13;100599.44;5090135;28;20405;-62
2021/12/25 05:28:40;;;;;;;7.72;6.00;;;;;;;14.59;39.10;100600.50;5090367;28;20857;-62
2021/12/25 05:31:08;;;;;;;5.28;4.30;;;;;;;14.60;38.70;100605.69;5090273;28;20462;-61
2021/12/25 05:33:35;;;;;;;5.35;4.63;;;;;;;14.56;39.00;100601.66;5089985;28;20882;-62
2021/12/25 05:36:03;;;;;;;6.68;4.55;;;;;;;14.35;39.32;100603.78;5089562;28;20434;-62
2021/12/25 05:38:31;;;;;;;5.65;4.65;;;;;;;14.53;39.11;100612.59;5089695;28;20435;-61
2021/12/25 05:40:59;;;;;;;4.70;4.13;;;;;;;14.68;38.98;100615.59;5090154;28;20433;-61
2021/12/25 05:43:26;;;;;;;6.88;5.63;;;;;;;14.53;39.21;100609.94;5090098;28;20420;-62
2021/12/25 05:45:53;;;;;;;6.88;6.28;;;;;;;14.73;38.96;100626.59;5090115;28;20422;-61
2021/12/25 05:48:21;;;;;;;6.55;5.80;;;;;;;14.95;38.37;100635.91;5090236;28;20406;-62
2021/12/25 05:50:48;;;;;;;8.40;7.50;;;;;;;14.88;38.40;100634.88;5090034;28;20528;-62
2021/12/25 05:53:17;;;;;;;8.48;7.68;;;;;;;14.94;38.46;100644.06;5089534;28;20883;-62
2021/12/25 05:55:44;;;;;;;8.52;7.45;;;;;;;14.88;38.55;100653.56;5089833;28;20499;-62
2021/12/25 05:58:12;;;;;;;8.80;6.20;;;;;;;14.89;38.86;100651.72;5089618;28;20865;-62
2021/12/25 06:00:40;;;;;;;8.70;6.80;;;;;;;14.93;38.74;100651.25;5089542;28;20405;-62
2021/12/25 06:03:07;;;;;;;8.70;6.93;;;;;;;14.99;38.73;100657.78;5089831;28;20508;-63
2021/12/25 06:05:34;;;;;;;6.53;5.55;;;;;;;14.91;38.85;100658.56;5089494;28;20413;-63
2021/12/25 06:08:01;;;;;;;12.00;9.30;;;;;;;14.99;38.63;100674.63;5089314;28;20420;-63
2021/12/25 06:10:28;;;;;;;9.50;8.50;;;;;;;15.01;38.59;100667.31;5089963;28;20492;-63
2021/12/25 06:12:58;;;;;;;63.22;56.35;;;;;;;15.16;38.18;100674.72;5089618;28;20415;-63
2021/12/25 06:15:28;;;;;;;10.90;9.70;;;;;;;15.13;38.48;100670.53;5089277;28;20500;-62
2021/12/25 06:17:55;;;;;;;9.00;7.75;;;;;;;15.13;38.50;100678.53;5089684;28;20405;-63
2021/12/25 06:20:22;;;;;;;9.40;7.05;;;;;;;14.94;38.98;100676.94;5089313;28;20417;-63
2021/12/25 06:22:49;;;;;;;7.88;6.57;;;;;;;14.89;38.69;100683.72;5089669;28;20414;-63
2021/12/25 06:25:16;;;;;;;10.88;8.63;;;;;;;14.91;38.79;100684.41;5089277;28;20405;-64
2021/12/25 06:27:43;;;;;;;7.60;5.93;;;;;;;14.82;38.76;100696.81;5089240;28;20405;-64
2021/12/25 06:30:13;;;;;;;7.68;6.88;;;;;;;14.73;39.24;100687.94;5089056;28;20423;-63
2021/12/25 06:32:41;;;;;;;6.80;4.90;;;;;;;14.74;39.14;100699.44;5089351;28;20911;-63
2021/12/25 06:35:09;;;;;;;6.32;4.78;;;;;;;14.77;39.34;100699.13;5089546;28;20511;-63
2021/12/25 06:37:36;;;;;;;6.63;5.80;;;;;;;14.89;38.90;100705.91;5089492;28;20416;-64
2021/12/25 06:40:04;;;;;;;9.32;8.45;;;;;;;15.02;38.69;100706.34;5089223;28;20444;-65
2021/12/25 06:42:31;;;;;;;4.60;3.90;;;;;;;15.11;38.51;100712.56;5089585;28;20408;-64
2021/12/25 06:44:58;;;;;;;3.38;3.08;;;;;;;15.09;38.76;100711.03;5089080;28;20949;-64
2021/12/25 06:47:25;;;;;;;5.00;4.28;;;;;;;15.20;38.41;100708.94;5089474;28;20492;-64
2021/12/25 06:49:53;;;;;;;5.47;3.25;;;;;;;15.20;38.35;100713.44;5092794;28;20409;-65
2021/12/25 06:52:20;;;;;;;6.50;3.63;;;;;;;15.31;38.20;100710.50;5093159;28;20488;-65
2021/12/25 06:54:47;;;;;;;8.00;4.78;;;;;;;15.30;38.12;100714.16;5093274;28;20513;-65
2021/12/25 06:57:15;;;;;;;8.13;6.95;;;;;;;15.47;38.08;100720.44;5093088;28;20420;-65
2021/12/25 06:59:41;;;;;;;8.27;7.35;;;;;;;15.68;37.68;100717.38;5092853;28;20764;-64
2021/12/25 07:02:09;;;;;;;8.30;7.57;;;;;;;15.93;37.62;100715.66;5093457;28;20451;-64
2021/12/25 07:04:36;;;;;;;9.70;7.95;;;;;;;16.31;36.76;100724.09;5093195;28;20405;-65
2021/12/25 07:07:04;;;;;;;18.15;14.40;;;;;;;16.41;36.89;100729.31;5092758;28;20496;-64
2021/12/25 07:09:31;;;;;;;30.03;18.87;;;;;;;16.82;36.23;100718.66;5092689;28;20897;-65
2021/12/25 07:11:58;;;;;;;10.25;7.10;;;;;;;17.53;35.17;100724.22;5091483;28;20483;-65
2021/12/25 07:14:25;;;;;;;5.82;4.53;;;;;;;21.75;28.56;100734.13;5090472;28;20433;-65
2021/12/25 07:16:52;;;;;;;4.28;3.72;;;;;;;21.87;28.28;100720.09;5091553;28;20956;-65
2021/12/25 07:19:19;;;;;;;4.10;3.70;;;;;;;21.74;28.69;100715.50;5092462;28;20910;-66
2021/12/25 07:21:46;;;;;;;6.72;4.70;;;;;;;25.64;23.61;100727.38;5092422;28;20405;-66
2021/12/25 07:24:14;;;;;;;4.82;4.32;;;;;;;27.58;21.51;100726.09;5092857;28;20454;-66
2021/12/25 07:26:43;;;;;;;6.55;5.15;;;;;;;29.38;19.63;100723.81;5092384;28;20393;-65
2021/12/25 07:29:10;;;;;;;6.70;5.00;;;;;;;29.46;19.15;100720.66;5092268;28;20866;-66
2021/12/25 07:31:37;;;;;;;7.63;5.97;;;;;;;28.58;20.12;100715.78;5092337;28;20408;-66
2021/12/25 07:34:04;;;;;;;8.80;6.15;;;;;;;26.43;22.20;100711.09;5092216;28;20420;-63
2021/12/25 07:36:31;;;;;;;8.02;6.28;;;;;;;24.89;23.87;100712.03;5092065;28;20436;-63
2021/12/25 07:39:00;;;;;;;6.67;4.33;;;;;;;24.39;24.25;100713.63;5082046;28;20504;-66
2021/12/25 07:41:28;;;;;;;8.25;7.20;;;;;;;23.85;25.13;100711.44;5091877;28;20405;-66
2021/12/25 07:43:55;;;;;;;6.97;5.60;;;;;;;23.33;25.71;100697.84;5092051;28;20412;-65
2021/12/25 07:46:23;;;;;;;11.10;7.80;;;;;;;22.14;27.27;100702.97;5091752;28;20898;-65
2021/12/25 07:48:50;;;;;;;9.40;7.40;;;;;;;21.37;28.56;100704.91;5091979;28;20837;-65
2021/12/25 07:51:17;;;;;;;16.40;12.65;;;;;;;21.91;28.27;100705.19;5091886;28;20409;-65
2021/12/25 07:53:45;;;;;;;12.43;8.95;;;;;;;21.68;28.34;100703.63;5092147;28;20416;-65
2021/12/25 07:56:12;;;;;;;12.10;8.45;;;;;;;21.29;29.36;100713.16;5091774;28;20424;-64
2021/12/25 07:58:42;;;;;;;16.02;12.85;;;;;;;21.02;29.42;100717.50;5091020;28;20511;-64
2021/12/25 08:01:09;;;;;;;10.32;8.18;;;;;;;20.84;29.99;100717.16;5090370;28;20401;-64
2021/12/25 08:03:36;;;;;;;10.70;7.13;;;;;;;20.74;30.17;100714.78;5091953;28;20405;-65
2021/12/25 08:06:03;;;;;;;12.82;9.75;;;;;;;21.23;29.54;100716.63;5091894;28;20458;-65
2021/12/25 08:08:30;;;;;;;20.38;14.75;;;;;;;21.98;28.35;100711.44;5091522;28;21001;-65
2021/12/25 08:10:57;;;;;;;8.15;5.53;;;;;;;24.79;24.91;100707.09;5091472;28;20441;-65
2021/12/25 08:13:24;;;;;;;11.85;9.15;;;;;;;26.09;22.93;100708.84;5089616;28;20492;-65
2021/12/25 08:15:53;;;;;;;9.73;7.53;;;;;;;26.89;21.87;100704.94;5091170;28;20432;-65
2021/12/25 08:18:20;;;;;;;8.55;6.30;;;;;;;29.93;18.93;100698.34;5091167;28;20444;-65
2021/12/25 08:20:47;;;;;;;4.35;3.70;;;;;;;30.76;17.82;100692.56;5091372;28;20511;-65
2021/12/25 08:23:14;;;;;;;5.30;4.70;;;;;;;31.94;16.76;100702.22;5090950;28;20484;-64
2021/12/25 08:25:41;;;;;;;5.85;4.40;;;;;;;31.97;16.59;100709.06;5091365;28;20719;-63
2021/12/25 08:28:08;;;;;;;6.00;4.00;;;;;;;31.11;17.44;100716.59;5090286;28;20493;-63
2021/12/25 08:30:35;;;;;;;8.97;5.40;;;;;;;27.76;20.07;100714.22;5090325;28;20460;-63
2021/12/25 08:33:03;;;;;;;8.98;7.85;;;;;;;26.44;21.31;100705.44;5091082;28;20841;-64
2021/12/25 08:35:31;;;;;;;11.40;8.73;;;;;;;26.50;21.60;100695.50;5090856;28;20409;-63
2021/12/25 08:37:58;;;;;;;6.13;4.80;;;;;;;28.80;19.56;100707.69;5086931;28;20799;-63
2021/12/25 08:40:26;;;;;;;7.78;6.55;;;;;;;33.69;15.26;100721.34;5080436;28;20500;-64
2021/12/25 08:42:58;;;;;;;5.53;4.80;;;;;;;35.16;13.75;100695.78;5090440;28;20409;-64
2021/12/25 08:48:17;;;;;;;4.50;4.05;;;;;;;35.59;13.12;100701.31;5090663;28;20405;-65
2021/12/25 08:50:49;;;;;;;6.15;5.03;;;;;;;34.95;13.73;100692.41;5090224;28;20906;-64
2021/12/25 08:53:17;;;;;;;4.88;4.35;;;;;;;30.53;17.00;100691.81;5090436;28;20500;-65
2021/12/25 08:55:44;;;;;;;4.22;3.83;;;;;;;29.87;18.04;100686.53;5090468;28;20413;-64
2021/12/25 08:58:11;;;;;;;4.00;3.60;;;;;;;33.56;15.04;100688.94;5090511;28;20417;-64
2021/12/25 09:00:38;;;;;;;7.50;6.47;;;;;;;32.92;14.99;100692.16;5090657;28;20504;-64
2021/12/25 09:03:05;;;;;;;5.85;4.90;;;;;;;33.46;14.69;100681.59;5090844;28;20445;-64
2021/12/25 09:05:34;;;;;;;6.28;5.32;;;;;;;36.89;12.10;100682.53;5090346;28;20492;-65
2021/12/25 09:08:02;;;;;;;5.68;5.10;;;;;;;36.14;12.70;100669.69;5090640;28;20401;-64
2021/12/25 09:10:30;;;;;;;5.75;4.80;;;;;;;34.14;13.91;100674.66;5090313;28;20906;-63
2021/12/25 09:12:57;;;;;;;7.53;6.75;;;;;;;35.40;13.19;100665.47;5090250;28;20933;-64
2021/12/25 09:15:25;;;;;;;6.50;5.50;;;;;;;34.56;13.89;100664.97;5090498;28;20405;-64
2021/12/25 09:17:52;;;;;;;9.35;8.35;;;;;;;31.06;16.51;100653.63;5089784;28;20536;-64
2021/12/25 09:20:23;;;;;;;18.67;16.70;;;;;;;28.21;19.18;100645.38;5090350;28;20499;-64
2021/12/25 09:22:58;;;;;;;9.67;8.50;;;;;;;26.07;21.07;100629.53;5088156;28;20421;-64
2021/12/25 09:25:27;;;;;;;8.15;6.47;;;;;;;25.58;22.27;100629.56;5089080;28;20412;-63
2021/12/25 09:27:55;;;;;;;6.00;5.40;;;;;;;26.23;21.57;100635.38;5088999;28;20500;-63
2021/12/25 09:30:22;;;;;;;9.55;7.90;;;;;;;30.44;17.67;100635.19;5089778;28;20459;-63
2021/12/25 09:32:49;;;;;;;13.68;11.55;;;;;;;34.55;14.23;100650.38;5090222;28;20417;-64
2021/12/25 09:35:16;;;;;;;14.15;12.05;;;;;;;34.81;13.75;100639.97;5089121;28;20413;-64
2021/12/25 09:37:43;;;;;;;14.80;12.90;;;;;;;29.22;18.62;100635.47;5090438;28;20536;-64
2021/12/25 09:40:13;;;;;;;65.72;59.03;;;;;;;26.69;21.02;100623.75;5089995;28;20546;-64
2021/12/25 09:42:42;;;;;;;9.77;7.82;;;;;;;24.84;23.05;100628.72;5089928;28;20484;-64
2021/12/25 09:45:10;;;;;;;9.40;7.00;;;;;;;23.82;24.11;100619.88;5089886;28;20412;-63
2021/12/25 09:47:37;;;;;;;5.93;5.13;;;;;;;23.15;25.39;100620.13;5073840;28;20499;-63
2021/12/25 09:50:06;;;;;;;8.67;5.80;;;;;;;22.89;25.61;100616.44;5089500;28;20409;-64
2021/12/25 09:52:34;;;;;;;6.22;4.43;;;;;;;22.88;25.87;100613.94;5089885;28;20409;-64
2021/12/25 09:55:01;;;;;;;6.30;4.93;;;;;;;22.98;25.81;100609.75;5087826;28;20413;-63
2021/12/25 09:57:30;;;;;;;6.57;5.30;;;;;;;22.97;25.86;100608.13;5089037;28;20428;-63
2021/12/25 09:59:57;;;;;;;5.13;4.27;;;;;;;22.78;26.29;100599.00;5089619;28;20484;-64
2021/12/25 10:02:24;;;;;;;6.88;5.63;;;;;;;22.44;26.20;100599.22;5087899;28;20491;-63
2021/12/25 10:04:53;;;;;;;17.87;15.17;;;;;;;22.24;26.58;100591.13;5089427;28;20415;-64
2021/12/25 10:07:26;;;;;;;9.80;6.82;;;;;;;21.90;27.29;100592.94;5088063;28;20424;-63
2021/12/25 10:10:04;;;;;;;9.02;6.80;;;;;;;21.98;27.42;100606.25;5086979;28;20484;-64
2021/12/25 10:12:37;;;;;;;12.40;9.25;;;;;;;22.57;26.56;100583.88;5089342;28;20415;-64
2021/12/25 10:15:09;;;;;;;11.13;10.02;;;;;;;25.47;22.91;100577.97;5089213;28;20405;-64
2021/12/25 10:17:44;;;;;;;8.88;6.65;;;;;;;25.39;23.29;100582.66;5089492;28;20440;-63
2021/12/25 10:20:15;;;;;;;14.75;9.10;;;;;;;24.54;23.78;100580.66;5088460;28;20417;-63
2021/12/25 10:23:08;;;;;;;11.68;9.32;;;;;;;23.70;25.05;100580.00;5089111;28;20491;-64
2021/12/25 10:25:43;;;;;;;8.23;6.50;;;;;;;23.05;25.90;100582.75;5093442;28;20420;-64
2021/12/25 10:28:12;;;;;;;8.43;6.70;;;;;;;22.48;26.19;100587.81;5093084;28;20492;-63
2021/12/25 10:30:52;;;;;;;10.38;7.63;;;;;;;22.38;26.77;100592.78;5093327;28;20413;-63
2021/12/25 10:33:32;;;;;;;8.90;8.00;;;;;;;21.84;27.24;100602.69;5092966;28;20413;-64
2021/12/25 10:36:02;;;;;;;10.45;8.00;;;;;;;21.66;27.36;100592.47;5092744;28;20787;-64
2021/12/25 10:38:30;;;;;;;11.90;10.00;;;;;;;21.28;27.96;100600.19;5093470;28;20507;-61
2021/12/25 10:41:19;;;;;;;8.65;7.22;;;;;;;21.18;28.44;100595.97;5093274;28;20450;-63
2021/12/25 10:43:49;;;;;;;11.20;9.75;;;;;;;21.28;28.16;100598.31;5093282;28;20412;-64
2021/12/25 10:46:17;;;;;;;11.82;9.90;;;;;;;21.01;28.77;100589.28;5092262;28;20784;-63
2021/12/25 10:48:44;;;;;;;8.43;7.37;;;;;;;20.90;28.90;100590.63;5092620;28;20463;-63
2021/12/25 10:51:28;;;;;;;8.65;6.90;;;;;;;20.70;29.28;100592.38;5092156;28;20436;-65
2021/12/25 10:53:56;;;;;;;6.65;5.97;;;;;;;20.50;29.36;100590.34;5092522;28;20965;-63
2021/12/25 10:56:33;;;;;;;12.40;11.20;;;;;;;20.63;29.63;100583.44;5091438;28;20462;-63
2021/12/25 10:59:06;;;;;;;15.48;12.68;;;;;;;20.58;29.52;100581.31;5093509;28;20500;-63
2021/12/25 11:01:38;;;;;;;17.75;14.88;;;;;;;20.77;29.00;100577.09;5093149;28;20486;-64
2021/12/25 11:04:06;;;;;;;13.77;11.38;;;;;;;20.97;28.88;100569.97;5092771;28;20417;-63
2021/12/25 11:06:42;;;;;;;17.70;15.80;;;;;;;21.04;28.56;100569.19;5092312;28;20790;-63
2021/12/25 11:09:09;;;;;;;10.85;9.48;;;;;;;20.85;29.23;100563.50;5092654;28;20417;-63
2021/12/25 11:11:36;;;;;;;13.97;11.50;;;;;;;20.89;28.80;100564.75;5092632;28;20413;-63
2021/12/25 11:14:07;;;;;;;10.55;8.68;;;;;;;20.97;29.06;100561.91;5092940;28;20496;-63
2021/12/25 11:16:39;;;;;;;12.60;10.68;;;;;;;20.89;29.12;100563.94;5092151;28;20929;-62
2021/12/25 11:19:09;;;;;;;16.48;14.07;;;;;;;20.81;29.00;100571.13;5092524;28;20409;-63
2021/12/25 11:21:39;;;;;;;18.77;15.10;;;;;;;20.78;29.40;100559.91;5092247;28;20556;-63
2021/12/25 11:24:09;;;;;;;12.02;10.85;;;;;;;20.83;29.44;100565.53;5092791;28;20413;-63
2021/12/25 11:26:38;;;;;;;15.98;12.93;;;;;;;21.01;28.92;100563.16;5092477;28;20415;-64
2021/12/25 11:29:09;;;;;;;12.98;11.48;;;;;;;21.09;28.84;100550.56;5092602;28;20505;-63
2021/12/25 11:31:36;;;;;;;9.20;7.20;;;;;;;20.67;29.08;100555.91;5092207;28;20405;-63
2021/12/25 11:34:04;;;;;;;8.07;6.07;;;;;;;20.74;29.21;100550.56;5092220;28;20413;-63
2021/12/25 11:36:31;;;;;;;8.32;6.95;;;;;;;20.68;29.13;100549.53;5090912;28;20496;-63
2021/12/25 11:38:58;;;;;;;9.75;8.23;;;;;;;20.91;28.74;100543.84;5092385;28;20501;-63
2021/12/25 11:41:27;;;;;;;8.98;8.07;;;;;;;20.44;29.38;100537.31;5092163;28;20902;-63
2021/12/25 11:43:55;;;;;;;10.18;6.80;;;;;;;20.38;29.50;100538.94;5091690;28;20492;-63
2021/12/25 11:46:36;;;;;;;10.13;8.15;;;;;;;20.20;29.84;100536.72;5092109;28;20417;-63
2021/12/25 11:49:09;;;;;;;9.85;6.95;;;;;;;19.87;30.42;100528.38;5092213;28;20429;-63
2021/12/25 11:51:39;;;;;;;9.45;8.10;;;;;;;19.54;30.63;100536.06;5091818;28;20415;-63
2021/12/25 11:54:29;;;;;;;11.75;9.45;;;;;;;19.53;30.76;100523.66;5091839;28;20416;-63
2021/12/25 11:57:22;;;;;;;11.80;9.33;;;;;;;19.36;31.19;100528.41;5091804;28;20545;-63
2021/12/25 11:59:51;;;;;;;15.00;13.40;;;;;;;19.56;30.79;100525.97;5092003;28;20533;-63
2021/12/25 12:02:42;;;;;;;15.95;14.25;;;;;;;19.81;30.95;100529.16;5092009;28;20492;-63
2021/12/25 12:05:24;;;;;;;14.13;10.80;;;;;;;19.74;30.78;100529.06;5091327;28;20969;-63
2021/12/25 12:08:04;;;;;;;16.92;13.32;;;;;;;19.88;30.30;100527.34;5091920;28;20472;-63
2021/12/25 12:10:50;;;;;;;17.10;12.13;;;;;;;19.82;30.70;100530.81;5091518;28;20405;-63
2021/12/25 12:13:20;;;;;;;15.57;11.35;;;;;;;19.78;30.73;100527.66;5091836;28;20412;-63
2021/12/25 12:15:48;;;;;;;12.60;10.53;;;;;;;19.98;30.25;100525.16;5091489;28;20563;-63
2021/12/25 12:18:40;;;;;;;9.15;7.85;;;;;;;19.84;30.33;100525.25;5091257;28;20429;-63
2021/12/25 12:21:33;;;;;;;11.90;10.70;;;;;;;19.87;30.60;100524.84;5091132;28;20492;-63
2021/12/25 12:24:37;;;;;;;9.52;7.93;;;;;;;19.93;30.66;100529.44;5091556;28;20417;-63
2021/12/25 12:27:05;;;;;;;11.60;8.60;;;;;;;19.89;30.65;100525.47;5091409;28;20420;-63
2021/12/25 12:29:49;;;;;;;12.73;9.30;;;;;;;20.04;30.24;100520.03;5091083;28;20405;-64